Time;durP1;ratioP1;P1;durP2;ratioP2;P2;SDS_P1;SDS_P2;PMS_P1;PMS_P2;Temp;Humidity;BMP_temperature;BMP_pressure;BME280_temperature;BME280_humidity;BME280_pressure;Samples;Min_cycle;Max_cycle;Signal;HPM_P1;HPM_P2
2023/10/13 00:01:42;;;;;;;229.27;66.07;;;;;;;;;;4976458;28;20491;-49
2023/10/13 00:04:08;;;;;;;229.80;69.40;;;;;;;;;;4976283;28;20435;-49
2023/10/13 00:06:34;;;;;;;229.17;68.67;;;;;;;;;;4976455;28;20442;-48
2023/10/13 00:09:00;;;;;;;226.73;62.23;;;;;;;;;;4976423;28;20506;-50
2023/10/13 00:11:26;;;;;;;225.67;62.97;;;;;;;;;;4976436;28;20440;-49
2023/10/13 00:13:54;;;;;;;226.77;66.53;;;;;;;;;;4975881;28;20785;-49
2023/10/13 00:16:27;;;;;;;229.37;68.43;;;;;;;;;;4976485;28;20405;-48
2023/10/13 00:18:54;;;;;;;229.00;67.20;;;;;;;;;;4976429;28;20413;-50
2023/10/13 00:21:31;;;;;;;227.90;66.80;;;;;;;;;;4976208;28;20503;-49
2023/10/13 00:23:57;;;;;;;228.07;66.63;;;;;;;;;;4975921;28;20476;-48
2023/10/13 00:26:27;;;;;;;228.70;68.07;;;;;;;;;;4976071;28;20424;-50
2023/10/13 00:29:37;;;;;;;226.43;65.70;;;;;;;;;;4976093;28;20494;-48
2023/10/13 00:31:48;;;;;;;234.40;70.50;;;;;;;;;;4966029;28;20515;-49
2023/10/13 00:34:32;;;;;;;228.20;65.30;;;;;;;;;;4975702;28;20439;-49
2023/10/13 00:37:27;;;;;;;230.60;69.27;;;;;;;;;;4969733;28;20400;-49
2023/10/13 00:39:56;;;;;;;226.93;66.00;;;;;;;;;;4969080;28;20893;-49
2023/10/13 00:42:30;;;;;;;226.87;65.03;;;;;;;;;;4975825;28;20441;-49
2023/10/13 00:44:56;;;;;;;226.07;64.27;;;;;;;;;;4969259;28;20478;-50
2023/10/13 00:47:47;;;;;;;228.67;68.97;;;;;;;;;;4975746;28;20848;-49
2023/10/13 00:50:11;;;;;;;227.83;64.97;;;;;;;;;;4975648;28;20419;-49
2023/10/13 00:52:41;;;;;;;228.37;65.77;;;;;;;;;;4975602;28;20413;-50
2023/10/13 00:55:08;;;;;;;227.87;65.77;;;;;;;;;;4975520;28;20782;-49
2023/10/13 00:57:34;;;;;;;229.17;67.47;;;;;;;;;;4975555;28;20443;-48
2023/10/13 01:00:20;;;;;;;229.03;67.37;;;;;;;;;;4975609;28;20552;-49
2023/10/13 01:02:55;;;;;;;231.50;70.07;;;;;;;;;;4966716;28;20449;-49
2023/10/13 01:05:22;;;;;;;229.13;68.13;;;;;;;;;;4974817;28;20460;-49
2023/10/13 01:07:52;;;;;;;229.87;67.47;;;;;;;;;;4974595;28;20456;-50
2023/10/13 01:10:19;;;;;;;229.27;69.30;;;;;;;;;;4975575;28;20499;-50
2023/10/13 01:12:52;;;;;;;230.07;68.87;;;;;;;;;;4974728;28;20427;-48
2023/10/13 01:15:20;;;;;;;229.93;68.90;;;;;;;;;;4975268;28;20757;-49
2023/10/13 01:17:46;;;;;;;228.43;66.50;;;;;;;;;;4970002;28;20423;-49
2023/10/13 01:20:26;;;;;;;228.20;66.97;;;;;;;;;;4975283;28;20791;-49
2023/10/13 01:22:55;;;;;;;233.90;71.70;;;;;;;;;;4967773;28;20848;-50
2023/10/13 01:25:27;;;;;;;237.57;73.53;;;;;;;;;;4975509;28;20417;-49
2023/10/13 01:27:53;;;;;;;230.70;67.47;;;;;;;;;;4974152;28;20557;-48
2023/10/13 01:30:24;;;;;;;233.03;72.97;;;;;;;;;;4974846;28;20417;-48
2023/10/13 01:32:51;;;;;;;231.07;68.47;;;;;;;;;;4974680;28;20421;-47
2023/10/13 01:35:35;;;;;;;227.17;64.60;;;;;;;;;;4974751;28;20437;-48
2023/10/13 01:38:01;;;;;;;231.43;69.73;;;;;;;;;;4969690;28;20405;-48
2023/10/13 01:40:33;;;;;;;228.57;68.77;;;;;;;;;;4974817;28;20494;-48
2023/10/13 01:42:59;;;;;;;237.77;76.40;;;;;;;;;;4974471;28;20671;-48
2023/10/13 01:45:31;;;;;;;235.97;75.50;;;;;;;;;;4974454;28;20428;-47
2023/10/13 01:47:57;;;;;;;231.07;70.37;;;;;;;;;;4974715;28;20465;-47
2023/10/13 01:50:30;;;;;;;230.03;69.03;;;;;;;;;;4974580;28;20406;-47
2023/10/13 01:53:17;;;;;;;238.77;74.47;;;;;;;;;;4974284;28;20493;-47
2023/10/13 01:55:43;;;;;;;228.20;68.47;;;;;;;;;;4974393;28;20965;-47
2023/10/13 01:58:16;;;;;;;233.87;76.00;;;;;;;;;;4974392;28;20405;-47
2023/10/13 02:00:47;;;;;;;230.90;69.37;;;;;;;;;;4974438;28;20461;-47
2023/10/13 02:03:16;;;;;;;229.70;68.17;;;;;;;;;;4974020;28;20463;-47
2023/10/13 02:05:52;;;;;;;230.53;68.27;;;;;;;;;;4974173;28;20453;-47
2023/10/13 02:08:23;;;;;;;231.43;70.77;;;;;;;;;;4974186;28;20456;-48
2023/10/13 02:10:49;;;;;;;230.53;68.03;;;;;;;;;;4966942;28;20405;-47
2023/10/13 02:13:17;;;;;;;230.53;70.13;;;;;;;;;;4973864;28;20440;-47
2023/10/13 02:15:44;;;;;;;232.90;73.23;;;;;;;;;;4973683;28;20490;-47
2023/10/13 02:18:10;;;;;;;231.93;72.23;;;;;;;;;;4974115;28;20701;-47
2023/10/13 02:20:42;;;;;;;230.17;69.90;;;;;;;;;;4974017;28;20839;-47
2023/10/13 02:23:10;;;;;;;231.07;68.87;;;;;;;;;;4973549;28;20924;-49
2023/10/13 02:25:43;;;;;;;230.37;70.13;;;;;;;;;;4973978;28;20422;-47
2023/10/13 02:28:21;;;;;;;229.70;67.83;;;;;;;;;;4974099;28;20822;-48
2023/10/13 02:30:50;;;;;;;230.07;67.90;;;;;;;;;;4966326;28;20460;-46
2023/10/13 02:33:29;;;;;;;229.17;66.37;;;;;;;;;;4973515;28;20432;-47
2023/10/13 02:35:55;;;;;;;231.00;70.07;;;;;;;;;;4967403;28;20497;-47
2023/10/13 02:38:27;;;;;;;230.07;69.83;;;;;;;;;;4973718;28;20421;-48
2023/10/13 02:40:54;;;;;;;232.33;70.53;;;;;;;;;;4973681;28;20411;-47
2023/10/13 02:43:21;;;;;;;231.53;72.53;;;;;;;;;;4973407;28;20430;-48
2023/10/13 02:45:58;;;;;;;228.47;67.97;;;;;;;;;;4973500;28;20406;-48
2023/10/13 02:48:25;;;;;;;230.97;69.47;;;;;;;;;;4973668;28;21029;-47
2023/10/13 02:50:55;;;;;;;230.20;67.23;;;;;;;;;;4973622;28;20424;-49
2023/10/13 02:53:21;;;;;;;230.77;70.27;;;;;;;;;;4973153;28;20432;-48
2023/10/13 02:55:55;;;;;;;231.97;72.93;;;;;;;;;;4973511;28;20416;-48
2023/10/13 02:58:21;;;;;;;232.23;73.50;;;;;;;;;;4973278;28;20416;-46
2023/10/13 03:00:47;;;;;;;229.97;67.37;;;;;;;;;;4973436;28;20454;-48
2023/10/13 03:03:18;;;;;;;232.30;70.87;;;;;;;;;;4972957;28;20431;-47
2023/10/13 03:05:44;;;;;;;231.73;69.60;;;;;;;;;;4973186;28;20419;-47
2023/10/13 03:08:10;;;;;;;228.00;65.63;;;;;;;;;;4973167;28;20472;-49
2023/10/13 03:10:40;;;;;;;227.40;65.80;;;;;;;;;;4973700;28;20406;-48
2023/10/13 03:13:09;;;;;;;233.37;72.73;;;;;;;;;;4972696;28;20771;-48
2023/10/13 03:15:35;;;;;;;229.33;68.37;;;;;;;;;;4973157;28;20433;-47
2023/10/13 03:18:02;;;;;;;226.00;64.90;;;;;;;;;;4973162;28;20861;-47
2023/10/13 03:20:31;;;;;;;229.50;67.07;;;;;;;;;;4973187;28;20412;-47
2023/10/13 03:22:58;;;;;;;237.57;76.90;;;;;;;;;;4972589;28;20486;-48
2023/10/13 03:25:29;;;;;;;228.10;65.50;;;;;;;;;;4973024;28;20945;-48
2023/10/13 03:30:22;;;;;;;230.10;68.80;;;;;;;;;;4973246;28;20417;-47
2023/10/13 03:32:53;;;;;;;230.80;68.83;;;;;;;;;;4972677;28;20412;-47
2023/10/13 03:35:25;;;;;;;231.70;71.80;;;;;;;;;;4971299;28;20428;-47
2023/10/13 03:37:51;;;;;;;230.43;67.67;;;;;;;;;;4968255;28;20409;-48
2023/10/13 03:46:00;;;;;;;232.03;70.20;;;;;;;;;;4946701;29;20489;-51
2023/10/13 03:53:35;;;;;;;232.03;72.03;;;;;;;;;;4972308;28;20455;-47
2023/10/13 03:56:08;;;;;;;228.07;66.53;;;;;;;;;;4972727;28;20941;-48
2023/10/13 03:58:36;;;;;;;230.00;67.83;;;;;;;;;;4972713;28;20423;-47
2023/10/13 04:01:03;;;;;;;231.20;69.83;;;;;;;;;;4972655;28;20414;-47
2023/10/13 04:03:35;;;;;;;229.17;69.13;;;;;;;;;;4972407;28;20523;-48
2023/10/13 04:06:06;;;;;;;231.17;72.80;;;;;;;;;;4972581;28;20869;-47
2023/10/13 04:09:15;;;;;;;228.90;68.73;;;;;;;;;;4972534;28;20514;-49
2023/10/13 04:11:52;;;;;;;227.50;66.03;;;;;;;;;;4972429;28;20979;-47
2023/10/13 04:14:24;;;;;;;228.63;67.90;;;;;;;;;;4972612;28;20508;-48
2023/10/13 04:16:54;;;;;;;229.63;70.23;;;;;;;;;;4967237;28;20446;-46
2023/10/13 04:19:23;;;;;;;230.57;70.40;;;;;;;;;;4972408;28;20420;-47
2023/10/13 04:21:59;;;;;;;230.57;69.67;;;;;;;;;;4972266;28;20414;-47
2023/10/13 04:24:39;;;;;;;226.97;65.47;;;;;;;;;;4972102;28;20787;-47
2023/10/13 04:32:29;;;;;;;231.27;72.37;;;;;;;;;;4972166;28;21009;-49
2023/10/13 04:35:09;;;;;;;228.47;66.60;;;;;;;;;;4972126;28;20495;-47
2023/10/13 04:40:25;;;;;;;226.77;66.40;;;;;;;;;;4974547;28;20404;-48
2023/10/13 04:42:58;;;;;;;234.37;74.03;;;;;;;;;;4975648;28;20834;-48
2023/10/13 04:50:47;;;;;;;227.30;66.70;;;;;;;;;;4975348;28;20421;-47
2023/10/13 05:44:56;;;;;;;227.87;67.30;;;;;;;;;;4972625;28;20436;-47
2023/10/13 05:47:46;;;;;;;229.90;72.50;;;;;;;;;;4974521;28;20412;-48
2023/10/13 06:31:08;;;;;;;224.47;66.70;;;;;;;;;;4968896;28;20930;-47
2023/10/13 06:33:34;;;;;;;227.07;71.00;;;;;;;;;;4973774;28;20432;-46
2023/10/13 06:36:01;;;;;;;223.67;66.47;;;;;;;;;;4973848;28;20393;-47
2023/10/13 06:38:35;;;;;;;225.20;67.47;;;;;;;;;;4973726;28;20454;-47
2023/10/13 06:41:05;;;;;;;228.23;70.90;;;;;;;;;;4973703;28;20456;-46
2023/10/13 06:43:32;;;;;;;228.67;71.57;;;;;;;;;;4973298;28;20951;-47
2023/10/13 06:46:01;;;;;;;226.97;70.33;;;;;;;;;;4973663;28;20413;-47
2023/10/13 06:48:33;;;;;;;225.57;70.23;;;;;;;;;;4973446;28;20456;-47
2023/10/13 06:51:04;;;;;;;227.43;73.37;;;;;;;;;;4973660;28;20450;-46
2023/10/13 06:53:36;;;;;;;225.77;73.27;;;;;;;;;;4973271;28;20432;-46
2023/10/13 06:56:02;;;;;;;224.07;69.73;;;;;;;;;;4973516;28;20408;-46
2023/10/13 06:58:29;;;;;;;227.77;73.13;;;;;;;;;;4973430;28;20413;-47
2023/10/13 07:00:55;;;;;;;228.60;74.70;;;;;;;;;;4973763;28;20763;-47
2023/10/13 07:03:22;;;;;;;227.00;74.17;;;;;;;;;;4972894;28;20853;-46
2023/10/13 07:05:48;;;;;;;229.20;75.53;;;;;;;;;;4973192;28;20481;-47
2023/10/13 07:08:19;;;;;;;222.90;67.47;;;;;;;;;;4973406;28;20463;-46
2023/10/13 07:10:52;;;;;;;227.30;73.30;;;;;;;;;;4965457;28;20905;-46
2023/10/13 07:13:19;;;;;;;223.27;67.60;;;;;;;;;;4972872;28;20433;-47
2023/10/13 07:15:46;;;;;;;222.73;67.97;;;;;;;;;;4965310;28;20406;-47
2023/10/13 07:18:18;;;;;;;224.53;68.77;;;;;;;;;;4973090;28;20511;-46
2023/10/13 07:20:44;;;;;;;225.20;70.33;;;;;;;;;;4972985;28;20455;-46
2023/10/13 07:23:17;;;;;;;225.77;71.40;;;;;;;;;;4972773;28;20911;-46
2023/10/13 07:25:44;;;;;;;224.83;70.53;;;;;;;;;;4973121;28;20418;-47
2023/10/13 07:28:10;;;;;;;225.57;70.80;;;;;;;;;;4973041;28;20461;-46
2023/10/13 07:30:42;;;;;;;229.10;73.77;;;;;;;;;;4972837;28;20914;-47
2023/10/13 07:33:12;;;;;;;228.63;73.13;;;;;;;;;;4972638;28;20490;-47
2023/10/13 07:35:39;;;;;;;228.03;72.07;;;;;;;;;;4972870;28;20414;-47
2023/10/13 07:38:07;;;;;;;228.53;73.73;;;;;;;;;;4973122;28;20765;-47
2023/10/13 07:43:09;;;;;;;232.33;78.33;;;;;;;;;;4973046;28;20421;-47
2023/10/13 07:45:37;;;;;;;228.23;75.37;;;;;;;;;;4971613;28;20884;-47
2023/10/13 07:48:23;;;;;;;226.90;70.17;;;;;;;;;;4972788;28;20456;-46
2023/10/13 07:51:01;;;;;;;229.17;72.17;;;;;;;;;;4970448;28;20413;-47
2023/10/13 07:53:28;;;;;;;229.40;73.27;;;;;;;;;;4972467;28;20937;-47
2023/10/13 07:56:02;;;;;;;229.80;74.27;;;;;;;;;;4972743;28;20477;-47
2023/10/13 07:58:28;;;;;;;231.40;77.20;;;;;;;;;;4972741;28;20764;-47
2023/10/13 08:01:06;;;;;;;230.40;74.00;;;;;;;;;;4972589;28;20414;-46
2023/10/13 08:03:43;;;;;;;230.63;76.33;;;;;;;;;;4972343;28;20488;-47
2023/10/13 08:08:38;;;;;;;228.47;71.00;;;;;;;;;;4972749;28;20550;-47
2023/10/13 08:11:11;;;;;;;228.20;73.03;;;;;;;;;;4972627;28;20471;-47
2023/10/13 08:13:38;;;;;;;232.90;75.10;;;;;;;;;;4971174;28;20426;-48
2023/10/13 08:16:09;;;;;;;230.47;74.97;;;;;;;;;;4976079;28;20404;-46
2023/10/13 08:18:35;;;;;;;229.77;71.80;;;;;;;;;;4976257;28;20413;-48
2023/10/13 08:21:05;;;;;;;228.50;71.97;;;;;;;;;;4976573;28;20414;-47
2023/10/13 08:32:13;;;;;;;231.53;72.67;;;;;;;;;;4974873;28;20479;-46
2023/10/13 08:40:20;;;;;;;230.43;72.17;;;;;;;;;;4967789;28;20428;-47
2023/10/13 08:48:12;;;;;;;234.33;74.63;;;;;;;;;;4967578;28;21034;-48
2023/10/13 08:50:48;;;;;;;231.63;74.93;;;;;;;;;;4976022;28;20412;-47
2023/10/13 08:56:17;;;;;;;230.27;72.40;;;;;;;;;;4968869;28;20407;-47
2023/10/13 09:04:22;;;;;;;236.13;78.33;;;;;;;;;;4950148;28;20512;-47
2023/10/13 09:07:35;;;;;;;236.83;78.53;;;;;;;;;;4967897;28;20429;-46
2023/10/13 09:09:44;;;;;;;235.83;77.53;;;;;;;;;;4974078;28;20468;-47
2023/10/13 09:12:13;;;;;;;232.50;76.10;;;;;;;;;;4975389;28;20421;-47
2023/10/13 09:14:44;;;;;;;236.67;81.93;;;;;;;;;;4975477;28;20702;-48
2023/10/13 09:19:49;;;;;;;236.00;80.90;;;;;;;;;;4967796;28;20931;-47
2023/10/13 09:22:35;;;;;;;236.33;79.90;;;;;;;;;;4975209;28;20417;-47
2023/10/13 09:25:02;;;;;;;236.43;83.43;;;;;;;;;;4969268;28;20856;-47
2023/10/13 09:27:28;;;;;;;236.33;83.07;;;;;;;;;;4974968;28;20442;-47
2023/10/13 09:29:55;;;;;;;237.07;85.63;;;;;;;;;;4975100;28;20420;-47
2023/10/13 09:32:21;;;;;;;239.20;89.43;;;;;;;;;;4975112;28;20452;-48
2023/10/13 09:34:50;;;;;;;237.83;89.17;;;;;;;;;;4967135;28;20432;-49
2023/10/13 09:37:22;;;;;;;236.37;89.20;;;;;;;;;;4975029;28;20409;-49
2023/10/13 09:39:52;;;;;;;238.33;90.80;;;;;;;;;;4970299;28;20468;-47
2023/10/13 09:42:18;;;;;;;238.77;94.80;;;;;;;;;;4974842;28;20420;-47
2023/10/13 09:44:51;;;;;;;239.07;92.60;;;;;;;;;;4966779;28;20433;-47
2023/10/13 09:47:18;;;;;;;240.83;98.30;;;;;;;;;;4974983;28;20417;-49
2023/10/13 09:49:45;;;;;;;245.60;106.67;;;;;;;;;;4974669;28;20464;-49
2023/10/13 09:52:18;;;;;;;247.57;112.03;;;;;;;;;;4974668;28;20413;-49
2023/10/13 09:54:48;;;;;;;245.77;111.50;;;;;;;;;;4966586;28;20417;-48
2023/10/13 09:57:19;;;;;;;247.33;112.67;;;;;;;;;;4984886;28;20424;-49
2023/10/13 09:59:51;;;;;;;246.37;113.03;;;;;;;;;;4971800;28;20611;-48
2023/10/13 10:02:25;;;;;;;248.47;116.87;;;;;;;;;;4972071;28;20471;-49
2023/10/13 10:05:21;;;;;;;245.90;112.40;;;;;;;;;;4974028;28;20451;-48
2023/10/13 10:07:56;;;;;;;246.00;115.03;;;;;;;;;;4974304;28;20533;-48
2023/10/13 10:10:25;;;;;;;244.93;113.90;;;;;;;;;;4974337;28;20404;-49
2023/10/13 10:13:02;;;;;;;255.03;128.97;;;;;;;;;;4978490;28;20416;-48
2023/10/13 10:15:43;;;;;;;249.63;121.80;;;;;;;;;;4974192;28;20409;-48
2023/10/13 10:18:19;;;;;;;245.83;116.00;;;;;;;;;;4974112;28;20409;-49
2023/10/13 10:20:47;;;;;;;245.07;115.30;;;;;;;;;;4966166;28;20464;-48
2023/10/13 10:23:28;;;;;;;245.23;115.33;;;;;;;;;;4973671;28;20417;-49
2023/10/13 10:26:08;;;;;;;250.03;122.20;;;;;;;;;;4967263;28;20401;-48
2023/10/13 10:28:43;;;;;;;247.07;115.97;;;;;;;;;;4973847;28;20825;-48
2023/10/13 10:31:15;;;;;;;246.73;112.73;;;;;;;;;;4974033;28;20412;-48
2023/10/13 10:33:41;;;;;;;246.60;117.73;;;;;;;;;;4973147;28;20515;-49
2023/10/13 10:36:14;;;;;;;246.90;116.60;;;;;;;;;;4973731;28;20408;-49
2023/10/13 10:38:52;;;;;;;247.50;113.83;;;;;;;;;;4973331;28;20420;-48
2023/10/13 10:41:29;;;;;;;245.43;113.27;;;;;;;;;;4984364;28;20865;-48
2023/10/13 10:43:55;;;;;;;247.00;113.07;;;;;;;;;;4980528;28;20534;-50
2023/10/13 10:46:28;;;;;;;245.93;110.27;;;;;;;;;;4973983;28;20481;-49
2023/10/13 10:48:57;;;;;;;244.03;106.70;;;;;;;;;;4973559;28;20555;-49
2023/10/13 10:51:23;;;;;;;242.23;108.33;;;;;;;;;;4973533;28;20876;-48
2023/10/13 10:53:53;;;;;;;245.73;111.33;;;;;;;;;;4973207;28;20932;-48
2023/10/13 10:56:19;;;;;;;240.77;102.87;;;;;;;;;;4973591;28;20912;-49
2023/10/13 10:58:46;;;;;;;244.70;111.07;;;;;;;;;;4973365;28;20416;-49
2023/10/13 11:01:19;;;;;;;246.23;111.03;;;;;;;;;;4973147;28;20893;-48
2023/10/13 11:03:58;;;;;;;246.73;110.50;;;;;;;;;;4972908;28;20462;-48
2023/10/13 11:06:26;;;;;;;244.23;107.33;;;;;;;;;;4971676;28;20483;-48
2023/10/13 11:09:03;;;;;;;241.40;104.03;;;;;;;;;;4976943;28;20889;-49
2023/10/13 11:11:36;;;;;;;243.67;108.90;;;;;;;;;;4983768;28;20405;-48
2023/10/13 11:14:17;;;;;;;244.77;109.73;;;;;;;;;;4972595;28;20968;-50
2023/10/13 11:16:59;;;;;;;245.83;110.37;;;;;;;;;;4972602;28;20487;-48
2023/10/13 11:19:38;;;;;;;246.13;109.60;;;;;;;;;;4972993;28;20915;-49
2023/10/13 11:22:41;;;;;;;240.70;103.00;;;;;;;;;;4972836;28;20477;-49
2023/10/13 11:25:10;;;;;;;240.20;101.17;;;;;;;;;;4972935;28;20428;-48
2023/10/13 11:27:44;;;;;;;245.63;109.97;;;;;;;;;;4972273;28;20515;-50
2023/10/13 11:30:14;;;;;;;243.33;107.07;;;;;;;;;;4962076;28;20430;-48
2023/10/13 11:32:41;;;;;;;242.27;102.57;;;;;;;;;;4971379;28;20467;-48
2023/10/13 11:35:20;;;;;;;242.17;108.90;;;;;;;;;;4971922;28;20998;-48
2023/10/13 11:37:55;;;;;;;238.73;99.53;;;;;;;;;;4973009;28;20408;-48
2023/10/13 11:40:43;;;;;;;243.13;108.20;;;;;;;;;;4970110;28;20425;-48
2023/10/13 11:43:13;;;;;;;240.80;99.93;;;;;;;;;;4972614;28;20498;-48
2023/10/13 11:45:54;;;;;;;239.47;98.83;;;;;;;;;;4972907;28;20408;-48
2023/10/13 11:48:34;;;;;;;236.73;95.63;;;;;;;;;;4973262;28;20845;-49
2023/10/13 11:51:00;;;;;;;240.80;102.50;;;;;;;;;;4976446;28;20435;-49
2023/10/13 11:53:28;;;;;;;242.23;107.47;;;;;;;;;;4976395;28;20783;-48
2023/10/13 11:55:54;;;;;;;240.90;102.90;;;;;;;;;;4976897;28;20488;-48
2023/10/13 11:58:20;;;;;;;243.53;109.57;;;;;;;;;;4976730;28;20549;-49
2023/10/13 12:06:22;;;;;;;246.03;119.53;;;;;;;;;;4957405;29;20525;-49
2023/10/13 12:08:52;;;;;;;247.67;120.97;;;;;;;;;;4976290;28;20832;-49
2023/10/13 12:11:30;;;;;;;241.87;116.73;;;;;;;;;;4976567;28;20408;-49
2023/10/13 12:13:56;;;;;;;250.13;130.10;;;;;;;;;;4976064;28;20924;-49
2023/10/13 12:16:22;;;;;;;247.03;126.30;;;;;;;;;;4976609;28;20428;-48
2023/10/13 12:18:55;;;;;;;249.57;133.13;;;;;;;;;;4976439;28;20409;-49
2023/10/13 12:21:21;;;;;;;251.43;135.13;;;;;;;;;;4976353;28;20804;-49
2023/10/13 12:23:47;;;;;;;250.77;131.87;;;;;;;;;;4976353;28;20487;-49
2023/10/13 12:26:20;;;;;;;249.43;133.57;;;;;;;;;;4976306;28;20400;-48
2023/10/13 12:28:53;;;;;;;251.53;138.30;;;;;;;;;;4976167;28;21097;-49
2023/10/13 12:31:26;;;;;;;250.33;138.03;;;;;;;;;;4957015;28;20408;-50
2023/10/13 12:33:52;;;;;;;248.03;133.27;;;;;;;;;;4963758;28;20437;-49
2023/10/13 12:52:19;;;;;;;246.53;125.53;;;;;;;;;;4975729;28;20424;-49
2023/10/13 12:57:23;;;;;;;250.10;128.57;;;;;;;;;;4973880;28;20467;-48
2023/10/13 12:59:53;;;;;;;247.90;124.80;;;;;;;;;;4973856;28;20420;-49
2023/10/13 13:02:20;;;;;;;247.80;124.53;;;;;;;;;;4975313;28;20472;-48
2023/10/13 13:04:50;;;;;;;246.57;121.37;;;;;;;;;;4974524;28;20932;-49
2023/10/13 13:07:16;;;;;;;248.63;122.57;;;;;;;;;;4978340;28;20431;-50
2023/10/13 13:09:43;;;;;;;249.17;124.33;;;;;;;;;;4981403;28;20518;-49
2023/10/13 13:12:12;;;;;;;243.97;112.03;;;;;;;;;;4975349;28;20423;-49
2023/10/13 13:14:40;;;;;;;245.33;116.57;;;;;;;;;;4968131;28;20436;-48
2023/10/13 13:17:06;;;;;;;243.97;112.10;;;;;;;;;;4969492;28;20421;-48
2023/10/13 13:19:35;;;;;;;244.60;118.77;;;;;;;;;;4975322;28;20508;-48
2023/10/13 13:22:03;;;;;;;245.90;117.53;;;;;;;;;;4955924;28;20409;-48
2023/10/13 13:24:29;;;;;;;248.23;114.97;;;;;;;;;;4954709;28;20438;-49
2023/10/13 13:26:56;;;;;;;246.40;116.93;;;;;;;;;;4972195;28;20409;-49
2023/10/13 13:29:22;;;;;;;249.93;122.23;;;;;;;;;;4975105;28;20480;-49
2023/10/13 13:31:48;;;;;;;252.37;121.43;;;;;;;;;;4974320;28;20444;-48
2023/10/13 13:34:14;;;;;;;244.83;109.43;;;;;;;;;;4977042;28;20443;-49
2023/10/13 13:36:44;;;;;;;242.03;106.37;;;;;;;;;;4955691;28;20412;-49
2023/10/13 13:39:10;;;;;;;243.40;109.43;;;;;;;;;;4972559;28;20420;-49
2023/10/13 13:41:37;;;;;;;246.47;116.03;;;;;;;;;;4974501;28;20413;-49
2023/10/13 13:44:13;;;;;;;243.13;112.10;;;;;;;;;;4974662;28;20511;-49
2023/10/13 13:46:42;;;;;;;249.77;123.87;;;;;;;;;;4974959;28;20408;-50
2023/10/13 13:49:17;;;;;;;241.57;112.00;;;;;;;;;;4974733;28;20515;-48
2023/10/13 13:51:43;;;;;;;240.67;106.13;;;;;;;;;;4973348;28;20456;-48
2023/10/13 13:54:09;;;;;;;245.43;115.13;;;;;;;;;;4974286;28;20425;-48
2023/10/13 13:56:38;;;;;;;243.03;113.07;;;;;;;;;;4975049;28;20752;-48
2023/10/13 13:59:08;;;;;;;243.20;112.90;;;;;;;;;;4973465;28;20424;-48
2023/10/13 14:01:37;;;;;;;243.73;113.23;;;;;;;;;;4974564;28;20896;-49
2023/10/13 14:04:06;;;;;;;244.77;114.33;;;;;;;;;;4974423;28;20454;-48
2023/10/13 14:06:33;;;;;;;241.87;106.60;;;;;;;;;;4974156;28;20470;-49
2023/10/13 14:09:14;;;;;;;244.93;106.27;;;;;;;;;;4974900;28;20995;-49
2023/10/13 14:14:12;;;;;;;243.83;111.13;;;;;;;;;;4983063;28;20447;-49
2023/10/13 14:16:44;;;;;;;245.80;113.63;;;;;;;;;;4982691;28;20413;-49
2023/10/13 14:19:10;;;;;;;242.60;107.93;;;;;;;;;;4974085;28;20761;-48
2023/10/13 14:21:36;;;;;;;242.70;109.33;;;;;;;;;;4974036;28;20421;-49
2023/10/13 14:24:03;;;;;;;242.60;108.67;;;;;;;;;;4973923;28;20872;-49
2023/10/13 14:26:29;;;;;;;244.07;112.47;;;;;;;;;;4974124;28;20495;-49
2023/10/13 14:29:03;;;;;;;245.73;115.67;;;;;;;;;;4974063;28;20544;-49
2023/10/13 14:31:30;;;;;;;245.77;118.67;;;;;;;;;;4973960;28;20499;-48
2023/10/13 14:33:59;;;;;;;241.07;109.40;;;;;;;;;;4973800;28;20437;-49
2023/10/13 14:36:28;;;;;;;243.10;115.27;;;;;;;;;;4974017;28;20409;-48
2023/10/13 14:38:54;;;;;;;245.20;117.83;;;;;;;;;;4974594;28;20413;-48
2023/10/13 14:41:20;;;;;;;244.87;117.73;;;;;;;;;;4973794;28;20479;-49
2023/10/13 14:43:49;;;;;;;243.77;112.83;;;;;;;;;;4973450;28;20437;-48
2023/10/13 14:46:22;;;;;;;244.37;114.07;;;;;;;;;;4973560;28;20935;-48
2023/10/13 14:48:49;;;;;;;246.70;113.27;;;;;;;;;;4973688;28;20457;-49
2023/10/13 14:51:18;;;;;;;244.37;108.23;;;;;;;;;;4973941;28;20428;-48
2023/10/13 14:53:44;;;;;;;243.53;109.87;;;;;;;;;;4973257;28;20432;-48
2023/10/13 14:56:14;;;;;;;239.03;99.93;;;;;;;;;;4973828;28;20819;-49
2023/10/13 14:58:44;;;;;;;248.33;115.00;;;;;;;;;;4973270;28;20959;-49
2023/10/13 15:01:15;;;;;;;244.93;108.50;;;;;;;;;;4973643;28;20825;-49
2023/10/13 15:03:41;;;;;;;247.37;112.93;;;;;;;;;;4972949;28;20866;-50
2023/10/13 15:06:07;;;;;;;242.73;106.60;;;;;;;;;;4970398;28;20464;-49
2023/10/13 15:08:33;;;;;;;242.93;104.53;;;;;;;;;;4973131;28;20456;-48
2023/10/13 15:11:12;;;;;;;244.73;108.70;;;;;;;;;;4973366;28;20416;-48
2023/10/13 15:13:38;;;;;;;241.57;104.07;;;;;;;;;;4972993;28;20934;-48
2023/10/13 15:16:13;;;;;;;243.30;103.47;;;;;;;;;;4973209;28;20500;-49
2023/10/13 15:18:40;;;;;;;242.43;101.93;;;;;;;;;;4973203;28;20927;-49
2023/10/13 15:21:08;;;;;;;241.93;101.37;;;;;;;;;;4973142;28;20414;-49
2023/10/13 15:23:42;;;;;;;239.93;101.53;;;;;;;;;;4972525;28;20980;-49
2023/10/13 15:26:09;;;;;;;240.93;97.67;;;;;;;;;;4971479;28;20426;-48
2023/10/13 15:28:37;;;;;;;241.10;99.23;;;;;;;;;;4972806;28;20528;-49
2023/10/13 15:31:22;;;;;;;238.40;95.17;;;;;;;;;;4973252;28;20436;-48
2023/10/13 15:33:52;;;;;;;241.97;99.57;;;;;;;;;;4965264;28;20943;-48
2023/10/13 15:36:23;;;;;;;239.07;96.10;;;;;;;;;;4973164;28;20479;-48
2023/10/13 15:38:49;;;;;;;244.13;107.80;;;;;;;;;;4972284;28;20846;-48
2023/10/13 15:41:21;;;;;;;241.83;101.40;;;;;;;;;;4972879;28;20428;-49
2023/10/13 15:43:49;;;;;;;242.67;103.37;;;;;;;;;;4966888;28;20456;-48
2023/10/13 15:46:35;;;;;;;239.27;97.80;;;;;;;;;;4972859;28;20417;-49
2023/10/13 15:49:02;;;;;;;239.50;96.23;;;;;;;;;;4967258;28;20464;-49
2023/10/13 15:51:29;;;;;;;241.47;98.20;;;;;;;;;;4972760;28;20905;-49
2023/10/13 15:53:56;;;;;;;237.97;95.07;;;;;;;;;;4967737;28;20431;-49
2023/10/13 15:56:22;;;;;;;250.00;117.97;;;;;;;;;;4972543;28;20424;-50
2023/10/13 15:58:49;;;;;;;249.07;121.77;;;;;;;;;;4972767;28;20420;-48
2023/10/13 16:01:15;;;;;;;249.17;118.23;;;;;;;;;;4972650;28;20459;-48
2023/10/13 16:03:49;;;;;;;245.10;113.43;;;;;;;;;;4972303;28;20479;-49
2023/10/13 16:06:15;;;;;;;239.83;96.97;;;;;;;;;;4968704;28;20428;-49
2023/10/13 16:08:45;;;;;;;238.90;94.67;;;;;;;;;;4972563;28;20998;-49
2023/10/13 16:11:17;;;;;;;238.17;96.83;;;;;;;;;;4972678;28;20416;-49
2023/10/13 16:13:44;;;;;;;239.50;96.80;;;;;;;;;;4972136;28;20939;-48
2023/10/13 16:16:16;;;;;;;236.70;93.17;;;;;;;;;;4972708;28;20412;-49
2023/10/13 16:18:45;;;;;;;237.13;94.20;;;;;;;;;;4972485;28;20444;-48
2023/10/13 16:21:15;;;;;;;238.40;95.83;;;;;;;;;;4972543;28;20409;-49
2023/10/13 16:23:53;;;;;;;236.03;90.83;;;;;;;;;;4972154;28;20429;-48
2023/10/13 16:26:21;;;;;;;238.47;92.30;;;;;;;;;;4972580;28;20789;-48
2023/10/13 16:28:48;;;;;;;243.00;101.23;;;;;;;;;;4968029;28;20469;-48
2023/10/13 16:31:14;;;;;;;239.17;97.93;;;;;;;;;;4972626;28;20417;-48
2023/10/13 16:33:40;;;;;;;236.80;96.40;;;;;;;;;;4972002;28;20447;-49
2023/10/13 16:36:09;;;;;;;239.43;97.20;;;;;;;;;;4974287;28;20444;-49
2023/10/13 16:38:38;;;;;;;241.03;98.03;;;;;;;;;;4975992;28;20503;-49
2023/10/13 16:41:08;;;;;;;242.83;101.13;;;;;;;;;;4975977;28;20409;-48
2023/10/13 16:43:35;;;;;;;237.90;95.40;;;;;;;;;;4975655;28;20841;-49
2023/10/13 16:46:01;;;;;;;238.67;96.00;;;;;;;;;;4976033;28;20452;-48
2023/10/13 16:48:27;;;;;;;239.67;97.27;;;;;;;;;;4975845;28;20453;-48
2023/10/13 16:50:57;;;;;;;237.40;91.47;;;;;;;;;;4975934;28;20405;-48
2023/10/13 16:53:23;;;;;;;237.17;94.30;;;;;;;;;;4975409;28;20507;-49
2023/10/13 16:55:49;;;;;;;238.40;95.07;;;;;;;;;;4975800;28;20447;-50
2023/10/13 16:58:15;;;;;;;237.23;91.47;;;;;;;;;;4975751;28;20417;-50
2023/10/13 17:00:46;;;;;;;240.77;99.23;;;;;;;;;;4975737;28;20409;-49
2023/10/13 17:03:12;;;;;;;241.97;98.67;;;;;;;;;;4975444;28;20401;-49
2023/10/13 17:05:45;;;;;;;242.27;97.70;;;;;;;;;;4975881;28;20767;-49
2023/10/13 17:08:13;;;;;;;236.90;91.67;;;;;;;;;;4975528;28;20460;-48
2023/10/13 17:10:39;;;;;;;238.47;90.53;;;;;;;;;;4975618;28;20496;-49
2023/10/13 17:13:06;;;;;;;240.50;95.00;;;;;;;;;;4975160;28;20409;-49
2023/10/13 17:15:32;;;;;;;238.17;94.27;;;;;;;;;;4975370;28;20428;-50
2023/10/13 17:17:59;;;;;;;236.93;92.00;;;;;;;;;;4975783;28;20404;-50
2023/10/13 17:20:25;;;;;;;237.53;91.03;;;;;;;;;;4974995;28;20817;-48